Struer, Denmark
Current Conditions -  °F | °C
As of 12:09 AM on Saturday 29 Nov 2014 (Local Time) from EKKA Reporting Station
Overcast Overcast  
Wind Chill: 32°   Ceiling: 2800
Heat Index: 39°   Visibility: 6mi
Dew Point: 30°   Wind: 13mph
Humidity: 70%   Direction: 120°ESE
Pressure: 30.24"   Gusts: 25mph
Location:  56.49°N, 8.58°E
Report Text: EKKA 282309Z AUTO 12011G22KT 090V150 9999NDV OVC028///04/M01 Q1024
Loading
Personal Weather Stations






























Interactive Weather Map New forecast layout! Learn more

10-Day Weather Forecast

Advertisements
Track Severe Weather on mobile